sensor_id;sensor_type;location;lat;lon;timestamp;pressure;altitude;pressure_sealevel;temperature;humidity
56456;BME280;42354;53.218;6.564;2023-07-29T00:00:44;47001.66;;;-142.92;100.00
56456;BME280;42354;53.218;6.564;2023-07-29T00:03:10;46991.38;;;-142.92;100.00
56456;BME280;42354;53.218;6.564;2023-07-29T00:05:39;46991.38;;;-142.92;100.00
56456;BME280;42354;53.218;6.564;2023-07-29T00:08:05;46995.50;;;-142.92;100.00
56456;BME280;42354;53.218;6.564;2023-07-29T00:10:32;47005.75;;;-142.92;100.00
56456;BME280;42354;53.218;6.564;2023-07-29T00:12:58;46987.28;;;-142.92;100.00
56456;BME280;42354;53.218;6.564;2023-07-29T00:15:23;46985.22;;;-142.92;100.00
56456;BME280;42354;53.218;6.564;2023-07-29T00:17:49;46987.28;;;-142.92;100.00
56456;BME280;42354;53.218;6.564;2023-07-29T00:20:14;46999.59;;;-142.92;100.00
56456;BME280;42354;53.218;6.564;2023-07-29T00:22:40;47003.69;;;-142.92;100.00
56456;BME280;42354;53.218;6.564;2023-07-29T00:25:06;46989.34;;;-142.92;100.00
56456;BME280;42354;53.218;6.564;2023-07-29T00:27:31;46995.50;;;-142.92;100.00
56456;BME280;42354;53.218;6.564;2023-07-29T00:29:57;46991.38;;;-142.92;100.00
56456;BME280;42354;53.218;6.564;2023-07-29T00:32:22;46995.50;;;-142.92;100.00
56456;BME280;42354;53.218;6.564;2023-07-29T00:34:48;46987.28;;;-142.92;100.00
56456;BME280;42354;53.218;6.564;2023-07-29T00:37:13;46993.44;;;-142.92;100.00
56456;BME280;42354;53.218;6.564;2023-07-29T00:39:39;46985.22;;;-142.92;100.00
56456;BME280;42354;53.218;6.564;2023-07-29T00:42:05;46987.28;;;-142.92;100.00
56456;BME280;42354;53.218;6.564;2023-07-29T00:44:30;47007.81;;;-142.92;100.00
56456;BME280;42354;53.218;6.564;2023-07-29T00:46:57;46999.59;;;-142.92;100.00
56456;BME280;42354;53.218;6.564;2023-07-29T00:49:23;46989.34;;;-142.92;100.00
56456;BME280;42354;53.218;6.564;2023-07-29T00:51:50;46995.50;;;-142.92;100.00
56456;BME280;42354;53.218;6.564;2023-07-29T00:54:15;46997.53;;;-142.92;100.00
56456;BME280;42354;53.218;6.564;2023-07-29T00:56:41;47007.81;;;-142.92;100.00
56456;BME280;42354;53.218;6.564;2023-07-29T00:59:07;46983.19;;;-142.92;100.00
56456;BME280;42354;53.218;6.564;2023-07-29T01:01:33;46997.53;;;-142.92;100.00
56456;BME280;42354;53.218;6.564;2023-07-29T01:03:58;47001.66;;;-142.92;100.00
56456;BME280;42354;53.218;6.564;2023-07-29T01:06:37;47001.66;;;-142.92;100.00
56456;BME280;42354;53.218;6.564;2023-07-29T01:09:18;46993.44;;;-142.92;100.00
56456;BME280;42354;53.218;6.564;2023-07-29T01:11:57;46995.50;;;-142.92;100.00
56456;BME280;42354;53.218;6.564;2023-07-29T01:14:33;47001.66;;;-142.92;100.00
56456;BME280;42354;53.218;6.564;2023-07-29T01:17:03;46995.50;;;-142.92;100.00
56456;BME280;42354;53.218;6.564;2023-07-29T01:20:01;46999.59;;;-142.92;100.00
56456;BME280;42354;53.218;6.564;2023-07-29T01:22:32;47001.66;;;-142.92;100.00
56456;BME280;42354;53.218;6.564;2023-07-29T01:24:58;46997.53;;;-142.92;100.00
56456;BME280;42354;53.218;6.564;2023-07-29T01:27:25;46989.34;;;-142.92;100.00
56456;BME280;42354;53.218;6.564;2023-07-29T01:29:50;46993.44;;;-142.92;100.00
56456;BME280;42354;53.218;6.564;2023-07-29T01:32:32;47005.75;;;-142.92;100.00
56456;BME280;42354;53.218;6.564;2023-07-29T01:37:38;47001.66;;;-142.92;100.00
56456;BME280;42354;53.218;6.564;2023-07-29T01:40:07;46993.44;;;-142.92;100.00
56456;BME280;42354;53.218;6.564;2023-07-29T01:42:33;46999.59;;;-142.92;100.00
56456;BME280;42354;53.218;6.564;2023-07-29T01:44:59;47001.66;;;-142.92;100.00
56456;BME280;42354;53.218;6.564;2023-07-29T01:47:25;46999.59;;;-142.92;100.00
56456;BME280;42354;53.218;6.564;2023-07-29T01:49:51;47001.66;;;-142.92;100.00
56456;BME280;42354;53.218;6.564;2023-07-29T01:52:16;46995.50;;;-142.92;100.00
56456;BME280;42354;53.218;6.564;2023-07-29T01:54:42;47011.91;;;-142.92;100.00
56456;BME280;42354;53.218;6.564;2023-07-29T01:57:07;47007.81;;;-142.92;100.00
56456;BME280;42354;53.218;6.564;2023-07-29T01:59:34;46987.28;;;-142.92;100.00
56456;BME280;42354;53.218;6.564;2023-07-29T02:01:59;47001.66;;;-142.92;100.00
56456;BME280;42354;53.218;6.564;2023-07-29T02:04:25;46991.38;;;-142.92;100.00
56456;BME280;42354;53.218;6.564;2023-07-29T02:06:50;46989.34;;;-142.92;100.00
56456;BME280;42354;53.218;6.564;2023-07-29T02:09:15;46999.59;;;-142.92;100.00
56456;BME280;42354;53.218;6.564;2023-07-29T02:11:41;46995.50;;;-142.92;100.00
56456;BME280;42354;53.218;6.564;2023-07-29T02:14:06;46999.59;;;-142.92;100.00
56456;BME280;42354;53.218;6.564;2023-07-29T02:16:32;47003.69;;;-142.92;100.00
56456;BME280;42354;53.218;6.564;2023-07-29T02:18:59;46995.50;;;-142.92;100.00
56456;BME280;42354;53.218;6.564;2023-07-29T02:21:25;46995.50;;;-142.92;100.00
56456;BME280;42354;53.218;6.564;2023-07-29T02:23:50;46997.53;;;-142.92;100.00
56456;BME280;42354;53.218;6.564;2023-07-29T02:26:17;47009.84;;;-142.92;100.00
56456;BME280;42354;53.218;6.564;2023-07-29T02:28:42;47001.66;;;-142.92;100.00
56456;BME280;42354;53.218;6.564;2023-07-29T02:31:16;46997.53;;;-142.92;100.00
56456;BME280;42354;53.218;6.564;2023-07-29T02:33:44;47003.69;;;-142.92;100.00
56456;BME280;42354;53.218;6.564;2023-07-29T02:36:11;46991.38;;;-142.92;100.00
56456;BME280;42354;53.218;6.564;2023-07-29T02:38:37;46999.59;;;-142.92;100.00
56456;BME280;42354;53.218;6.564;2023-07-29T02:41:02;46977.03;;;-142.92;100.00
56456;BME280;42354;53.218;6.564;2023-07-29T02:43:28;47018.06;;;-142.92;100.00
56456;BME280;42354;53.218;6.564;2023-07-29T02:45:53;47007.81;;;-142.92;100.00
56456;BME280;42354;53.218;6.564;2023-07-29T02:48:18;47020.13;;;-142.92;100.00
56456;BME280;42354;53.218;6.564;2023-07-29T02:50:44;47001.66;;;-142.92;100.00
56456;BME280;42354;53.218;6.564;2023-07-29T02:53:09;46999.59;;;-142.92;100.00
56456;BME280;42354;53.218;6.564;2023-07-29T02:55:35;47003.69;;;-142.92;100.00
56456;BME280;42354;53.218;6.564;2023-07-29T02:58:00;47009.84;;;-142.92;100.00
56456;BME280;42354;53.218;6.564;2023-07-29T03:00:26;47005.75;;;-142.92;100.00
56456;BME280;42354;53.218;6.564;2023-07-29T03:02:51;46991.38;;;-142.92;100.00
56456;BME280;42354;53.218;6.564;2023-07-29T03:05:16;47001.66;;;-142.92;100.00
56456;BME280;42354;53.218;6.564;2023-07-29T03:07:42;47005.75;;;-142.92;100.00
56456;BME280;42354;53.218;6.564;2023-07-29T03:10:08;46991.38;;;-142.92;100.00
56456;BME280;42354;53.218;6.564;2023-07-29T03:12:33;46989.34;;;-142.92;100.00
56456;BME280;42354;53.218;6.564;2023-07-29T03:14:59;46997.53;;;-142.92;100.00
56456;BME280;42354;53.218;6.564;2023-07-29T03:17:25;46995.50;;;-142.92;100.00
56456;BME280;42354;53.218;6.564;2023-07-29T03:19:51;47001.66;;;-142.92;100.00
56456;BME280;42354;53.218;6.564;2023-07-29T03:22:17;46999.59;;;-142.92;100.00
56456;BME280;42354;53.218;6.564;2023-07-29T03:24:42;46991.38;;;-142.92;100.00
56456;BME280;42354;53.218;6.564;2023-07-29T03:27:08;47009.84;;;-142.92;100.00
56456;BME280;42354;53.218;6.564;2023-07-29T03:29:35;46991.38;;;-142.92;100.00
56456;BME280;42354;53.218;6.564;2023-07-29T03:32:00;46997.53;;;-142.92;100.00
56456;BME280;42354;53.218;6.564;2023-07-29T03:34:26;47016.00;;;-142.92;100.00
56456;BME280;42354;53.218;6.564;2023-07-29T03:36:51;46995.50;;;-142.92;100.00
56456;BME280;42354;53.218;6.564;2023-07-29T03:39:17;46997.53;;;-142.92;100.00
56456;BME280;42354;53.218;6.564;2023-07-29T03:41:42;47011.91;;;-142.92;100.00
56456;BME280;42354;53.218;6.564;2023-07-29T03:44:07;47005.75;;;-142.92;100.00
56456;BME280;42354;53.218;6.564;2023-07-29T03:46:33;46995.50;;;-142.92;100.00
56456;BME280;42354;53.218;6.564;2023-07-29T03:48:58;46995.50;;;-142.92;100.00
56456;BME280;42354;53.218;6.564;2023-07-29T03:51:24;46993.44;;;-142.92;100.00
56456;BME280;42354;53.218;6.564;2023-07-29T03:53:50;47005.75;;;-142.92;100.00
56456;BME280;42354;53.218;6.564;2023-07-29T03:56:15;46995.50;;;-142.92;100.00
56456;BME280;42354;53.218;6.564;2023-07-29T03:58:41;46997.53;;;-142.92;100.00
56456;BME280;42354;53.218;6.564;2023-07-29T04:01:06;46977.03;;;-142.92;100.00
56456;BME280;42354;53.218;6.564;2023-07-29T04:03:33;46991.38;;;-142.92;100.00
56456;BME280;42354;53.218;6.564;2023-07-29T04:05:59;47011.91;;;-142.92;100.00
56456;BME280;42354;53.218;6.564;2023-07-29T04:08:25;47024.22;;;-142.92;100.00
56456;BME280;42354;53.218;6.564;2023-07-29T04:10:50;47213.03;;;-142.92;100.00
56456;BME280;42354;53.218;6.564;2023-07-29T04:13:16;47221.22;;;-142.92;100.00
56456;BME280;42354;53.218;6.564;2023-07-29T04:15:41;47219.19;;;-142.92;100.00
56456;BME280;42354;53.218;6.564;2023-07-29T04:18:07;47217.13;;;-142.92;100.00
56456;BME280;42354;53.218;6.564;2023-07-29T04:20:32;47221.22;;;-142.92;100.00
56456;BME280;42354;53.218;6.564;2023-07-29T04:22:59;47223.28;;;-142.92;100.00
56456;BME280;42354;53.218;6.564;2023-07-29T04:25:24;47225.34;;;-142.92;100.00
56456;BME280;42354;53.218;6.564;2023-07-29T04:27:49;47213.03;;;-142.92;100.00
56456;BME280;42354;53.218;6.564;2023-07-29T04:30:15;47219.19;;;-142.92;100.00
56456;BME280;42354;53.218;6.564;2023-07-29T04:32:40;47219.19;;;-142.92;100.00
56456;BME280;42354;53.218;6.564;2023-07-29T04:35:08;47217.13;;;-142.92;100.00
56456;BME280;42354;53.218;6.564;2023-07-29T04:37:33;47215.06;;;-142.92;100.00
56456;BME280;42354;53.218;6.564;2023-07-29T04:39:59;47229.44;;;-142.92;100.00
56456;BME280;42354;53.218;6.564;2023-07-29T04:42:24;47223.28;;;-142.92;100.00
56456;BME280;42354;53.218;6.564;2023-07-29T04:44:49;47219.19;;;-142.92;100.00
56456;BME280;42354;53.218;6.564;2023-07-29T04:47:15;47223.28;;;-142.92;100.00
56456;BME280;42354;53.218;6.564;2023-07-29T04:49:40;47219.19;;;-142.92;100.00
56456;BME280;42354;53.218;6.564;2023-07-29T04:52:06;47225.34;;;-142.92;100.00
56456;BME280;42354;53.218;6.564;2023-07-29T04:54:31;47217.13;;;-142.92;100.00
56456;BME280;42354;53.218;6.564;2023-07-29T04:56:56;47202.75;;;-142.92;100.00
56456;BME280;42354;53.218;6.564;2023-07-29T04:59:22;47200.69;;;-142.92;100.00
56456;BME280;42354;53.218;6.564;2023-07-29T05:01:47;47171.97;;;-142.92;100.00
56456;BME280;42354;53.218;6.564;2023-07-29T05:04:13;47159.66;;;-142.92;100.00
56456;BME280;42354;53.218;6.564;2023-07-29T05:06:38;47098.09;;;-142.92;100.00
56456;BME280;42354;53.218;6.564;2023-07-29T05:09:17;47032.44;;;-142.92;100.00
56456;BME280;42354;53.218;6.564;2023-07-29T05:11:44;47011.91;;;-142.92;100.00
56456;BME280;42354;53.218;6.564;2023-07-29T05:14:14;46991.38;;;-142.92;100.00
56456;BME280;42354;53.218;6.564;2023-07-29T05:16:41;46897.00;;;-142.92;100.00
56456;BME280;42354;53.218;6.564;2023-07-29T05:19:06;46870.31;;;-142.92;100.00
56456;BME280;42354;53.218;6.564;2023-07-29T05:21:32;46827.22;;;-142.92;100.00
56456;BME280;42354;53.218;6.564;2023-07-29T05:23:58;46812.88;;;-142.92;100.00
56456;BME280;42354;53.218;6.564;2023-07-29T05:26:23;46991.38;;;-142.92;100.00
56456;BME280;42354;53.218;6.564;2023-07-29T05:28:49;46989.34;;;-142.92;100.00
56456;BME280;42354;53.218;6.564;2023-07-29T05:31:14;46999.59;;;-142.92;100.00
56456;BME280;42354;53.218;6.564;2023-07-29T05:33:40;46997.53;;;-142.92;100.00
56456;BME280;42354;53.218;6.564;2023-07-29T05:36:05;46987.28;;;-142.92;100.00
56456;BME280;42354;53.218;6.564;2023-07-29T05:38:31;47013.97;;;-142.92;100.00
56456;BME280;42354;53.218;6.564;2023-07-29T05:40:56;47001.66;;;-142.92;100.00
56456;BME280;42354;53.218;6.564;2023-07-29T05:43:23;47007.81;;;-142.92;100.00
56456;BME280;42354;53.218;6.564;2023-07-29T05:45:48;46991.38;;;-142.92;100.00
56456;BME280;42354;53.218;6.564;2023-07-29T05:48:14;47003.69;;;-142.92;100.00
56456;BME280;42354;53.218;6.564;2023-07-29T05:50:39;46995.50;;;-142.92;100.00
56456;BME280;42354;53.218;6.564;2023-07-29T05:53:05;46995.50;;;-142.92;100.00
56456;BME280;42354;53.218;6.564;2023-07-29T05:55:30;46999.59;;;-142.92;100.00
56456;BME280;42354;53.218;6.564;2023-07-29T05:57:55;47009.84;;;-142.92;100.00
56456;BME280;42354;53.218;6.564;2023-07-29T06:00:22;47001.66;;;-142.92;100.00
56456;BME280;42354;53.218;6.564;2023-07-29T06:02:48;46999.59;;;-142.92;100.00
56456;BME280;42354;53.218;6.564;2023-07-29T06:05:13;47007.81;;;-142.92;100.00
56456;BME280;42354;53.218;6.564;2023-07-29T06:07:39;47016.00;;;-142.92;100.00
56456;BME280;42354;53.218;6.564;2023-07-29T06:10:09;46987.28;;;-142.92;100.00
56456;BME280;42354;53.218;6.564;2023-07-29T06:12:37;47007.81;;;-142.92;100.00
56456;BME280;42354;53.218;6.564;2023-07-29T06:15:04;47001.66;;;-142.92;100.00
56456;BME280;42354;53.218;6.564;2023-07-29T06:17:29;47009.84;;;-142.92;100.00
56456;BME280;42354;53.218;6.564;2023-07-29T06:19:55;46993.44;;;-142.92;100.00
56456;BME280;42354;53.218;6.564;2023-07-29T06:22:20;46991.38;;;-142.92;100.00
56456;BME280;42354;53.218;6.564;2023-07-29T06:24:46;46987.28;;;-142.92;100.00
56456;BME280;42354;53.218;6.564;2023-07-29T06:27:11;46999.59;;;-142.92;100.00
56456;BME280;42354;53.218;6.564;2023-07-29T06:29:37;47007.81;;;-142.92;100.00
56456;BME280;42354;53.218;6.564;2023-07-29T06:32:02;47003.69;;;-142.92;100.00
56456;BME280;42354;53.218;6.564;2023-07-29T06:34:28;46999.59;;;-142.92;100.00
56456;BME280;42354;53.218;6.564;2023-07-29T06:36:53;47003.69;;;-142.92;100.00
56456;BME280;42354;53.218;6.564;2023-07-29T06:39:19;47001.66;;;-142.92;100.00
56456;BME280;42354;53.218;6.564;2023-07-29T06:41:44;47003.69;;;-142.92;100.00
56456;BME280;42354;53.218;6.564;2023-07-29T06:44:09;47003.69;;;-142.92;100.00
56456;BME280;42354;53.218;6.564;2023-07-29T06:46:35;46999.59;;;-142.92;100.00
56456;BME280;42354;53.218;6.564;2023-07-29T06:49:00;46989.34;;;-142.92;100.00
56456;BME280;42354;53.218;6.564;2023-07-29T06:51:26;46999.59;;;-142.92;100.00
56456;BME280;42354;53.218;6.564;2023-07-29T06:53:51;47003.69;;;-142.92;100.00
56456;BME280;42354;53.218;6.564;2023-07-29T06:56:17;46997.53;;;-142.92;100.00
56456;BME280;42354;53.218;6.564;2023-07-29T06:58:42;46999.59;;;-142.92;100.00
56456;BME280;42354;53.218;6.564;2023-07-29T07:01:08;46999.59;;;-142.92;100.00
56456;BME280;42354;53.218;6.564;2023-07-29T07:03:33;46989.34;;;-142.92;100.00
56456;BME280;42354;53.218;6.564;2023-07-29T07:05:59;46983.19;;;-142.92;100.00
56456;BME280;42354;53.218;6.564;2023-07-29T07:08:24;46993.44;;;-142.92;100.00
56456;BME280;42354;53.218;6.564;2023-07-29T07:10:49;47003.69;;;-142.92;100.00
56456;BME280;42354;53.218;6.564;2023-07-29T07:13:15;46991.38;;;-142.92;100.00
56456;BME280;42354;53.218;6.564;2023-07-29T07:15:40;46993.44;;;-142.92;100.00
56456;BME280;42354;53.218;6.564;2023-07-29T07:18:05;47009.84;;;-142.92;100.00
56456;BME280;42354;53.218;6.564;2023-07-29T07:20:31;47007.81;;;-142.92;100.00
56456;BME280;42354;53.218;6.564;2023-07-29T07:22:56;47001.66;;;-142.92;100.00
56456;BME280;42354;53.218;6.564;2023-07-29T07:25:22;46991.38;;;-142.92;100.00
56456;BME280;42354;53.218;6.564;2023-07-29T07:27:47;46987.28;;;-142.92;100.00
56456;BME280;42354;53.218;6.564;2023-07-29T07:30:14;46997.53;;;-142.92;100.00
56456;BME280;42354;53.218;6.564;2023-07-29T07:32:39;46993.44;;;-142.92;100.00
56456;BME280;42354;53.218;6.564;2023-07-29T07:35:05;46997.53;;;-142.92;100.00
56456;BME280;42354;53.218;6.564;2023-07-29T07:37:30;47001.66;;;-142.92;100.00
56456;BME280;42354;53.218;6.564;2023-07-29T07:39:56;46993.44;;;-142.92;100.00
56456;BME280;42354;53.218;6.564;2023-07-29T07:42:21;47005.75;;;-142.92;100.00
56456;BME280;42354;53.218;6.564;2023-07-29T07:44:47;46999.59;;;-142.92;100.00
56456;BME280;42354;53.218;6.564;2023-07-29T07:47:12;47003.69;;;-142.92;100.00
56456;BME280;42354;53.218;6.564;2023-07-29T07:49:38;46993.44;;;-142.92;100.00
56456;BME280;42354;53.218;6.564;2023-07-29T07:52:03;47011.91;;;-142.92;100.00
56456;BME280;42354;53.218;6.564;2023-07-29T07:54:29;47005.75;;;-142.92;99.46
56456;BME280;42354;53.218;6.564;2023-07-29T07:56:54;47003.69;;;-142.92;97.92
56456;BME280;42354;53.218;6.564;2023-07-29T07:59:19;46997.53;;;-142.92;97.56
56456;BME280;42354;53.218;6.564;2023-07-29T08:01:45;46987.28;;;-142.92;98.04
56456;BME280;42354;53.218;6.564;2023-07-29T08:04:10;46985.22;;;-142.92;96.72
56456;BME280;42354;53.218;6.564;2023-07-29T08:06:36;46995.50;;;-142.92;95.02
56456;BME280;42354;53.218;6.564;2023-07-29T08:09:02;46985.22;;;-142.92;92.07
56456;BME280;42354;53.218;6.564;2023-07-29T08:11:28;47005.75;;;-142.92;91.61
56456;BME280;42354;53.218;6.564;2023-07-29T08:13:53;46997.53;;;-142.92;91.15
56456;BME280;42354;53.218;6.564;2023-07-29T08:16:18;47003.69;;;-142.92;91.29
56456;BME280;42354;53.218;6.564;2023-07-29T08:18:44;46995.50;;;-142.92;90.20
56456;BME280;42354;53.218;6.564;2023-07-29T08:21:09;46993.44;;;-142.92;88.96
56456;BME280;42354;53.218;6.564;2023-07-29T08:23:36;46995.50;;;-142.92;88.95
56456;BME280;42354;53.218;6.564;2023-07-29T08:26:04;46995.50;;;-142.92;86.72
56456;BME280;42354;53.218;6.564;2023-07-29T08:28:37;47007.81;;;-142.92;84.01
56456;BME280;42354;53.218;6.564;2023-07-29T08:31:03;46993.44;;;-142.92;84.81
56456;BME280;42354;53.218;6.564;2023-07-29T08:33:29;47007.81;;;-142.92;84.43
56456;BME280;42354;53.218;6.564;2023-07-29T08:35:54;47007.81;;;-142.92;83.32
56456;BME280;42354;53.218;6.564;2023-07-29T08:38:20;46985.22;;;-142.92;83.06
56456;BME280;42354;53.218;6.564;2023-07-29T08:41:04;46979.06;;;-142.92;82.14
56456;BME280;42354;53.218;6.564;2023-07-29T08:43:32;46989.34;;;-142.92;83.17
56456;BME280;42354;53.218;6.564;2023-07-29T08:46:01;47003.69;;;-142.92;84.02
56456;BME280;42354;53.218;6.564;2023-07-29T08:48:40;46987.28;;;-142.92;83.88
56456;BME280;42354;53.218;6.564;2023-07-29T08:51:07;47005.75;;;-142.92;85.69
56456;BME280;42354;53.218;6.564;2023-07-29T08:53:34;46991.38;;;-142.92;86.40
56456;BME280;42354;53.218;6.564;2023-07-29T08:56:00;46993.44;;;-142.92;86.47
56456;BME280;42354;53.218;6.564;2023-07-29T08:58:26;46989.34;;;-142.92;86.79
56456;BME280;42354;53.218;6.564;2023-07-29T09:00:52;46989.34;;;-142.92;86.18
56456;BME280;42354;53.218;6.564;2023-07-29T09:03:18;46995.50;;;-142.92;83.83
56456;BME280;42354;53.218;6.564;2023-07-29T09:05:45;47003.69;;;-142.92;81.57
56456;BME280;42354;53.218;6.564;2023-07-29T09:08:11;46989.34;;;-142.92;80.56
56456;BME280;42354;53.218;6.564;2023-07-29T09:10:37;46991.38;;;-142.92;79.28
56456;BME280;42354;53.218;6.564;2023-07-29T09:13:03;46997.53;;;-142.92;73.88
56456;BME280;42354;53.218;6.564;2023-07-29T09:15:35;46987.28;;;-142.92;73.17
56456;BME280;42354;53.218;6.564;2023-07-29T09:18:15;46987.28;;;-142.92;74.54
56456;BME280;42354;53.218;6.564;2023-07-29T09:20:41;46987.28;;;-142.92;76.96
56456;BME280;42354;53.218;6.564;2023-07-29T09:23:10;46989.34;;;-142.92;77.17
56456;BME280;42354;53.218;6.564;2023-07-29T09:25:35;46997.53;;;-142.92;78.51
56456;BME280;42354;53.218;6.564;2023-07-29T09:28:08;46983.19;;;-142.92;76.69
56456;BME280;42354;53.218;6.564;2023-07-29T09:30:33;46989.34;;;-142.92;73.62
56456;BME280;42354;53.218;6.564;2023-07-29T09:32:59;46997.53;;;-142.92;74.31
56456;BME280;42354;53.218;6.564;2023-07-29T09:35:34;47001.66;;;-142.92;72.58
56456;BME280;42354;53.218;6.564;2023-07-29T09:38:03;46989.34;;;-142.92;71.99
56456;BME280;42354;53.218;6.564;2023-07-29T09:40:39;46985.22;;;-142.92;68.73
56456;BME280;42354;53.218;6.564;2023-07-29T09:43:05;46993.44;;;-142.92;67.05
56456;BME280;42354;53.218;6.564;2023-07-29T09:45:34;46981.13;;;-142.92;65.85
56456;BME280;42354;53.218;6.564;2023-07-29T09:48:00;46987.28;;;-142.92;66.82
56456;BME280;42354;53.218;6.564;2023-07-29T09:50:27;46993.44;;;-142.92;66.74
56456;BME280;42354;53.218;6.564;2023-07-29T09:52:54;46985.22;;;-142.92;67.37
56456;BME280;42354;53.218;6.564;2023-07-29T09:55:22;46991.38;;;-142.92;71.58
56456;BME280;42354;53.218;6.564;2023-07-29T09:57:53;46995.50;;;-142.92;70.81
56456;BME280;42354;53.218;6.564;2023-07-29T10:00:18;46993.44;;;-142.92;71.36
56456;BME280;42354;53.218;6.564;2023-07-29T10:02:44;46993.44;;;-142.92;72.19
56456;BME280;42354;53.218;6.564;2023-07-29T10:05:13;46987.28;;;-142.92;70.07
56456;BME280;42354;53.218;6.564;2023-07-29T10:07:39;46991.38;;;-142.92;71.12
56456;BME280;42354;53.218;6.564;2023-07-29T10:10:06;47001.66;;;-142.92;70.79
56456;BME280;42354;53.218;6.564;2023-07-29T10:12:33;46999.59;;;-142.92;68.71
56456;BME280;42354;53.218;6.564;2023-07-29T10:15:06;46995.50;;;-142.92;66.05
56456;BME280;42354;53.218;6.564;2023-07-29T10:17:38;46987.28;;;-142.92;65.05
56456;BME280;42354;53.218;6.564;2023-07-29T10:20:05;46995.50;;;-142.92;60.99
56456;BME280;42354;53.218;6.564;2023-07-29T10:22:40;46997.53;;;-142.92;62.24
56456;BME280;42354;53.218;6.564;2023-07-29T10:25:17;46989.34;;;-142.92;64.03
56456;BME280;42354;53.218;6.564;2023-07-29T10:27:49;47001.66;;;-142.92;64.56
56456;BME280;42354;53.218;6.564;2023-07-29T10:30:20;46979.06;;;-142.92;64.44
56456;BME280;42354;53.218;6.564;2023-07-29T10:32:48;46987.28;;;-142.92;64.47
56456;BME280;42354;53.218;6.564;2023-07-29T10:35:15;46983.19;;;-142.92;64.63
56456;BME280;42354;53.218;6.564;2023-07-29T10:37:41;46991.38;;;-142.92;64.03
56456;BME280;42354;53.218;6.564;2023-07-29T10:40:11;46985.22;;;-142.92;60.50
56456;BME280;42354;53.218;6.564;2023-07-29T10:42:38;46987.28;;;-142.92;56.95
56456;BME280;42354;53.218;6.564;2023-07-29T10:45:17;46995.50;;;-142.92;59.85
56456;BME280;42354;53.218;6.564;2023-07-29T10:47:43;46987.28;;;-142.92;60.33
56456;BME280;42354;53.218;6.564;2023-07-29T10:50:20;46993.44;;;-142.92;61.58
56456;BME280;42354;53.218;6.564;2023-07-29T10:52:50;46997.53;;;-142.92;62.32
56456;BME280;42354;53.218;6.564;2023-07-29T10:58:15;46979.06;;;-142.92;65.27
56456;BME280;42354;53.218;6.564;2023-07-29T11:00:45;46989.34;;;-142.92;65.13
56456;BME280;42354;53.218;6.564;2023-07-29T11:03:12;46987.28;;;-142.92;66.33
56456;BME280;42354;53.218;6.564;2023-07-29T11:08:19;47001.66;;;-142.92;64.92
56456;BME280;42354;53.218;6.564;2023-07-29T11:10:58;46991.38;;;-142.92;66.52
56456;BME280;42354;53.218;6.564;2023-07-29T11:13:26;46981.13;;;-142.92;67.24
56456;BME280;42354;53.218;6.564;2023-07-29T11:15:53;46989.34;;;-142.92;70.58
56456;BME280;42354;53.218;6.564;2023-07-29T11:18:20;46979.06;;;-142.92;76.07
56456;BME280;42354;53.218;6.564;2023-07-29T11:20:46;46970.88;;;-142.92;79.40
56456;BME280;42354;53.218;6.564;2023-07-29T11:23:13;46995.50;;;-142.92;80.98
56456;BME280;42354;53.218;6.564;2023-07-29T11:25:39;46993.44;;;-142.92;80.06
56456;BME280;42354;53.218;6.564;2023-07-29T11:28:05;46987.28;;;-142.92;82.23
56456;BME280;42354;53.218;6.564;2023-07-29T11:30:30;46991.38;;;-142.92;82.72
56456;BME280;42354;53.218;6.564;2023-07-29T11:32:59;46987.28;;;-142.92;81.65
56456;BME280;42354;53.218;6.564;2023-07-29T11:35:28;46987.28;;;-142.92;83.27
56456;BME280;42354;53.218;6.564;2023-07-29T11:37:54;46989.34;;;-142.92;84.36
56456;BME280;42354;53.218;6.564;2023-07-29T11:40:22;46987.28;;;-142.92;82.39
56456;BME280;42354;53.218;6.564;2023-07-29T11:42:50;46999.59;;;-142.92;81.77
56456;BME280;42354;53.218;6.564;2023-07-29T11:45:17;47011.91;;;-142.92;82.47
56456;BME280;42354;53.218;6.564;2023-07-29T11:47:43;46991.38;;;-142.92;78.86
56456;BME280;42354;53.218;6.564;2023-07-29T11:50:10;46993.44;;;-142.92;76.81
56456;BME280;42354;53.218;6.564;2023-07-29T11:52:40;46989.34;;;-142.92;75.54
56456;BME280;42354;53.218;6.564;2023-07-29T11:55:06;46987.28;;;-142.92;73.55
56456;BME280;42354;53.218;6.564;2023-07-29T11:57:36;46995.50;;;-142.92;74.29
56456;BME280;42354;53.218;6.564;2023-07-29T12:00:06;46993.44;;;-142.92;76.17
56456;BME280;42354;53.218;6.564;2023-07-29T12:02:35;46981.13;;;-142.92;76.73
56456;BME280;42354;53.218;6.564;2023-07-29T12:05:02;46989.34;;;-142.92;77.86
56456;BME280;42354;53.218;6.564;2023-07-29T12:07:28;46991.38;;;-142.92;77.45
56456;BME280;42354;53.218;6.564;2023-07-29T12:09:55;46991.38;;;-142.92;77.14
56456;BME280;42354;53.218;6.564;2023-07-29T12:12:22;46985.22;;;-142.92;76.62
56456;BME280;42354;53.218;6.564;2023-07-29T12:14:48;46993.44;;;-142.92;75.95
56456;BME280;42354;53.218;6.564;2023-07-29T12:17:15;46974.97;;;-142.92;75.70
56456;BME280;42354;53.218;6.564;2023-07-29T12:19:41;46983.19;;;-142.92;76.44
56456;BME280;42354;53.218;6.564;2023-07-29T12:22:08;46987.28;;;-142.92;76.20
56456;BME280;42354;53.218;6.564;2023-07-29T12:24:38;46983.19;;;-142.92;77.65
56456;BME280;42354;53.218;6.564;2023-07-29T12:27:04;47003.69;;;-142.92;76.13
56456;BME280;42354;53.218;6.564;2023-07-29T12:29:29;47001.66;;;-142.92;75.82
56456;BME280;42354;53.218;6.564;2023-07-29T12:32:00;46991.38;;;-142.92;76.69
56456;BME280;42354;53.218;6.564;2023-07-29T12:34:30;46979.06;;;-142.92;79.03
56456;BME280;42354;53.218;6.564;2023-07-29T12:36:57;46989.34;;;-142.92;81.05
56456;BME280;42354;53.218;6.564;2023-07-29T12:41:52;46979.06;;;-142.92;81.56